createdAt,value
2022-12-31T00:01:54.898Z,1.50
2022-12-31T00:04:24.240Z,1.25
2022-12-31T00:06:53.536Z,1.52
2022-12-31T00:09:24.532Z,1.30
2022-12-31T00:11:53.777Z,1.27
2022-12-31T00:14:23.102Z,1.58
2022-12-31T00:16:52.429Z,1.50
2022-12-31T00:19:21.695Z,1.60
2022-12-31T00:21:50.961Z,1.50
2022-12-31T00:24:20.620Z,1.48
2022-12-31T00:26:49.941Z,1.52
2022-12-31T00:29:19.241Z,1.27
2022-12-31T00:31:48.532Z,1.30
2022-12-31T00:34:17.775Z,1.10
2022-12-31T00:36:47.014Z,1.20
2022-12-31T00:39:16.307Z,1.30
2022-12-31T00:41:46.176Z,1.40
2022-12-31T00:44:15.421Z,1.13
2022-12-31T00:49:13.701Z,1.13
2022-12-31T00:51:43.131Z,1.20
2022-12-31T00:54:12.380Z,1.40
2022-12-31T00:56:41.680Z,1.50
2022-12-31T00:59:10.956Z,1.80
2022-12-31T01:01:41.719Z,1.42
2022-12-31T01:04:16.121Z,1.20
2022-12-31T01:06:46.068Z,1.35
2022-12-31T01:09:16.254Z,1.23
2022-12-31T01:11:45.742Z,1.27
2022-12-31T01:14:16.139Z,1.60
2022-12-31T01:16:50.421Z,1.42
2022-12-31T01:19:24.374Z,1.40
2022-12-31T01:21:54.040Z,1.65
2022-12-31T01:24:23.568Z,1.55
2022-12-31T01:26:56.034Z,1.35
2022-12-31T01:29:25.314Z,1.23
2022-12-31T01:31:54.529Z,0.88
2022-12-31T01:34:23.886Z,1.08
2022-12-31T01:36:53.290Z,1.25
2022-12-31T01:39:22.526Z,1.25
2022-12-31T01:41:51.779Z,1.20
2022-12-31T01:44:30.312Z,1.25
2022-12-31T01:47:01.476Z,1.00
2022-12-31T01:49:42.924Z,1.05
2022-12-31T01:52:18.166Z,1.10
2022-12-31T01:54:50.533Z,1.17
2022-12-31T01:59:49.006Z,0.80
2022-12-31T02:02:18.599Z,0.63
2022-12-31T02:04:47.999Z,0.60
2022-12-31T02:07:17.246Z,0.60
2022-12-31T02:09:46.492Z,0.60
2022-12-31T02:12:15.785Z,0.80
2022-12-31T02:14:45.016Z,0.60
2022-12-31T02:17:22.683Z,0.40
2022-12-31T02:19:51.886Z,0.45
2022-12-31T02:22:29.269Z,0.70
2022-12-31T02:25:17.184Z,0.52
2022-12-31T02:28:05.061Z,0.60
2022-12-31T02:30:35.067Z,0.35
2022-12-31T02:33:04.246Z,0.43
2022-12-31T02:35:36.190Z,0.40
2022-12-31T02:38:13.837Z,0.30
2022-12-31T02:40:43.111Z,0.30
2022-12-31T02:43:12.389Z,0.95
2022-12-31T02:45:44.509Z,0.40
2022-12-31T02:48:13.702Z,0.35
2022-12-31T02:50:58.044Z,0.57
2022-12-31T02:53:36.326Z,0.52
2022-12-31T02:56:23.448Z,0.45
2022-12-31T02:59:05.086Z,0.63
2022-12-31T03:01:49.980Z,0.33
2022-12-31T03:04:32.324Z,0.35
2022-12-31T03:07:09.249Z,0.70
2022-12-31T03:09:39.111Z,0.50
2022-12-31T03:12:22.298Z,0.57
2022-12-31T03:14:51.605Z,0.60
2022-12-31T03:17:20.830Z,0.55
2022-12-31T03:20:02.788Z,0.70
2022-12-31T03:22:31.999Z,1.20
2022-12-31T03:25:18.869Z,1.30
2022-12-31T03:27:48.883Z,0.80
2022-12-31T03:30:20.148Z,1.00
2022-12-31T03:32:50.128Z,1.25
2022-12-31T03:35:20.628Z,1.40
2022-12-31T03:37:50.643Z,1.63
2022-12-31T03:40:20.691Z,0.98
2022-12-31T03:42:49.934Z,0.90
2022-12-31T03:45:19.226Z,1.60
2022-12-31T03:47:49.800Z,0.80
2022-12-31T03:50:20.048Z,0.80
2022-12-31T03:52:49.688Z,1.00
2022-12-31T03:55:18.915Z,0.90
2022-12-31T03:57:49.023Z,0.95
2022-12-31T04:00:20.325Z,0.82
2022-12-31T04:02:50.087Z,0.80
2022-12-31T04:05:19.891Z,0.90
2022-12-31T04:07:49.370Z,0.70
2022-12-31T04:10:19.344Z,1.50
2022-12-31T04:12:48.707Z,1.20
2022-12-31T04:15:19.820Z,1.02
2022-12-31T04:17:49.347Z,1.42
2022-12-31T04:20:19.172Z,1.20
2022-12-31T04:22:48.445Z,1.60
2022-12-31T04:25:17.733Z,1.70
2022-12-31T04:27:46.973Z,1.40
2022-12-31T04:30:16.392Z,1.23
2022-12-31T04:32:45.739Z,1.60
2022-12-31T04:35:15.072Z,1.52
2022-12-31T04:37:44.299Z,1.38
2022-12-31T04:40:13.698Z,1.08
2022-12-31T04:42:42.964Z,1.20
2022-12-31T04:45:12.548Z,0.73
2022-12-31T04:47:41.799Z,0.70
2022-12-31T04:50:11.060Z,0.85
2022-12-31T04:52:42.958Z,1.35
2022-12-31T04:55:12.549Z,0.60
2022-12-31T04:57:41.909Z,0.60
2022-12-31T05:00:11.458Z,0.85
2022-12-31T05:02:40.935Z,0.70
2022-12-31T05:05:10.616Z,0.93
2022-12-31T05:07:39.915Z,0.70
2022-12-31T05:10:09.518Z,1.60
2022-12-31T05:12:38.739Z,1.45
2022-12-31T05:15:08.308Z,1.00
2022-12-31T05:17:37.627Z,1.00
2022-12-31T05:20:07.123Z,0.63
2022-12-31T05:22:36.405Z,0.55
2022-12-31T05:25:05.786Z,0.55
2022-12-31T05:27:35.014Z,0.88
2022-12-31T05:30:04.253Z,0.65
2022-12-31T05:32:33.614Z,0.93
2022-12-31T05:35:02.844Z,1.08
2022-12-31T05:37:32.641Z,0.90
2022-12-31T05:40:02.353Z,0.85
2022-12-31T05:42:31.614Z,0.70
2022-12-31T05:45:00.849Z,0.73
2022-12-31T05:47:30.095Z,1.75
2022-12-31T05:50:02.059Z,0.90
2022-12-31T05:52:31.546Z,0.73
2022-12-31T05:55:00.874Z,0.60
2022-12-31T05:57:30.171Z,0.93
2022-12-31T05:59:59.442Z,0.85
2022-12-31T06:02:28.826Z,0.70
2022-12-31T06:04:58.060Z,1.33
2022-12-31T06:07:27.314Z,0.70
2022-12-31T06:09:56.698Z,0.70
2022-12-31T06:12:25.917Z,0.88
2022-12-31T06:14:55.242Z,1.25
2022-12-31T06:17:25.191Z,0.50
2022-12-31T06:19:54.490Z,1.02
2022-12-31T06:22:23.747Z,0.63
2022-12-31T06:24:54.012Z,0.65
2022-12-31T06:27:23.281Z,1.15
2022-12-31T06:29:52.491Z,0.50
2022-12-31T06:32:21.743Z,0.95
2022-12-31T06:34:51.059Z,1.10
2022-12-31T06:37:20.326Z,0.45
2022-12-31T06:39:49.599Z,0.80
2022-12-31T06:42:18.855Z,0.85
2022-12-31T06:44:48.203Z,0.80
2022-12-31T06:47:17.502Z,0.60
2022-12-31T06:49:46.744Z,0.70
2022-12-31T06:52:15.972Z,0.60
2022-12-31T06:54:45.388Z,0.50
2022-12-31T06:57:15.436Z,0.60
2022-12-31T06:59:44.902Z,0.43
2022-12-31T07:02:19.457Z,0.70
2022-12-31T07:05:10.059Z,0.90
2022-12-31T07:07:58.194Z,0.77
2022-12-31T07:10:36.279Z,0.73
2022-12-31T07:13:08.540Z,0.82
2022-12-31T07:18:21.585Z,1.05
2022-12-31T07:20:51.029Z,0.73
2022-12-31T07:23:20.537Z,2.05
2022-12-31T07:25:54.469Z,0.77
2022-12-31T07:28:37.208Z,0.77
2022-12-31T07:31:45.115Z,0.90
2022-12-31T07:34:25.514Z,0.70
2022-12-31T07:37:17.569Z,1.00
2022-12-31T07:40:05.678Z,0.82
2022-12-31T07:42:39.339Z,0.93
2022-12-31T07:45:17.416Z,0.70
2022-12-31T07:47:48.398Z,0.93
2022-12-31T07:50:19.600Z,0.80
2022-12-31T07:52:49.074Z,0.57
2022-12-31T07:55:18.591Z,0.93
2022-12-31T07:58:08.113Z,1.35
2022-12-31T08:00:37.403Z,0.80
2022-12-31T08:03:13.614Z,0.70
2022-12-31T08:05:45.569Z,0.85
2022-12-31T08:08:33.580Z,1.20
2022-12-31T08:11:11.228Z,1.23
2022-12-31T08:13:41.955Z,0.80
2022-12-31T08:16:14.701Z,1.05
2022-12-31T08:18:44.121Z,1.00
2022-12-31T08:21:19.541Z,0.80
2022-12-31T08:24:08.021Z,0.98
2022-12-31T08:26:39.475Z,1.02
2022-12-31T08:29:18.422Z,1.45
2022-12-31T08:31:57.965Z,0.80
2022-12-31T08:34:27.160Z,0.93
2022-12-31T08:37:14.091Z,0.47
2022-12-31T08:39:52.526Z,0.90
2022-12-31T08:42:42.014Z,0.82
2022-12-31T08:45:22.496Z,0.80
2022-12-31T08:48:12.005Z,0.60
2022-12-31T08:50:41.349Z,0.85
2022-12-31T08:53:10.807Z,0.90
2022-12-31T08:55:40.295Z,0.52
2022-12-31T08:58:27.590Z,1.02
2022-12-31T09:01:00.354Z,0.55
2022-12-31T09:03:40.733Z,0.50
2022-12-31T09:06:09.977Z,0.80
2022-12-31T09:08:48.095Z,0.70
2022-12-31T09:11:22.863Z,0.80
2022-12-31T09:13:55.848Z,0.70
2022-12-31T09:18:54.535Z,0.60
2022-12-31T09:21:23.890Z,0.80
2022-12-31T09:23:53.475Z,1.00
2022-12-31T09:26:34.943Z,0.80
2022-12-31T09:29:12.784Z,0.73
2022-12-31T09:31:53.919Z,0.90
2022-12-31T09:34:29.738Z,0.80
2022-12-31T09:37:19.299Z,1.42
2022-12-31T09:39:49.737Z,0.80
2022-12-31T09:42:42.276Z,0.80
2022-12-31T09:45:20.544Z,1.00
2022-12-31T09:48:09.743Z,0.95
2022-12-31T09:50:46.439Z,0.68
2022-12-31T09:53:27.292Z,1.02
2022-12-31T09:56:08.199Z,0.93
2022-12-31T09:58:56.380Z,1.02
2022-12-31T10:01:32.846Z,0.80
2022-12-31T10:04:14.349Z,0.82
2022-12-31T10:07:06.019Z,0.63
2022-12-31T10:09:54.125Z,1.10
2022-12-31T10:12:23.517Z,0.98
2022-12-31T10:15:07.305Z,1.00
2022-12-31T10:17:42.665Z,1.25
2022-12-31T10:20:25.385Z,1.30
2022-12-31T10:23:13.393Z,1.05
2022-12-31T10:25:53.549Z,1.08
2022-12-31T10:28:28.827Z,1.10
2022-12-31T10:31:05.530Z,1.00
2022-12-31T10:33:45.434Z,0.85
2022-12-31T10:36:21.528Z,0.63
2022-12-31T10:39:07.493Z,0.77
2022-12-31T10:41:55.223Z,0.80
2022-12-31T10:44:30.646Z,0.75
2022-12-31T10:47:06.075Z,1.15
2022-12-31T10:49:54.181Z,1.00
2022-12-31T10:52:42.141Z,1.88
2022-12-31T10:55:24.929Z,0.90
2022-12-31T10:58:12.797Z,1.00
2022-12-31T11:00:46.972Z,0.90
2022-12-31T11:03:30.746Z,1.08
2022-12-31T11:06:12.308Z,1.13
2022-12-31T11:08:44.601Z,0.70
2022-12-31T11:11:13.782Z,1.08
2022-12-31T11:13:46.033Z,0.95
2022-12-31T11:19:02.046Z,0.63
2022-12-31T11:21:49.856Z,1.02
2022-12-31T11:24:38.251Z,0.98
2022-12-31T11:27:26.084Z,1.35
2022-12-31T11:29:58.143Z,1.10
2022-12-31T11:32:30.378Z,1.20
2022-12-31T11:37:58.064Z,1.27
2022-12-31T11:40:30.328Z,1.08
2022-12-31T11:43:03.070Z,1.00
2022-12-31T11:45:51.230Z,1.05
2022-12-31T11:48:30.971Z,1.23
2022-12-31T11:51:13.237Z,1.25
2022-12-31T11:53:48.330Z,0.70
2022-12-31T11:56:21.575Z,1.23
2022-12-31T11:58:58.156Z,1.10
2022-12-31T12:01:36.085Z,1.40
2022-12-31T12:04:05.945Z,1.27
2022-12-31T12:06:35.611Z,0.90
2022-12-31T12:09:09.145Z,1.38
2022-12-31T12:11:40.776Z,1.02
2022-12-31T12:14:32.722Z,1.55
2022-12-31T12:17:05.199Z,1.10
2022-12-31T12:19:36.013Z,1.05
2022-12-31T12:22:23.818Z,1.25
2022-12-31T12:24:57.820Z,1.13
2022-12-31T12:27:30.082Z,1.10
2022-12-31T12:32:29.383Z,1.30
2022-12-31T12:34:58.688Z,1.33
2022-12-31T12:37:27.931Z,0.90
2022-12-31T12:40:00.935Z,1.02
2022-12-31T12:42:31.048Z,0.88
2022-12-31T12:45:23.415Z,1.38
2022-12-31T12:47:56.582Z,1.38
2022-12-31T12:50:35.366Z,0.95
2022-12-31T12:53:16.510Z,1.13
2022-12-31T12:56:04.678Z,1.23
2022-12-31T12:58:52.448Z,2.70
2022-12-31T13:01:39.850Z,1.55
2022-12-31T13:04:35.942Z,7.07
2022-12-31T13:07:17.615Z,8.30
2022-12-31T13:09:46.806Z,4.27
2022-12-31T13:12:28.271Z,1.70
2022-12-31T13:15:03.865Z,7.38
2022-12-31T13:20:26.054Z,2.08
2022-12-31T13:23:07.871Z,1.25
2022-12-31T13:25:57.544Z,2.03
2022-12-31T13:28:27.586Z,8.90
2022-12-31T13:31:08.489Z,4.38
2022-12-31T13:33:44.012Z,3.85
2022-12-31T13:36:17.961Z,1.40
2022-12-31T13:39:02.103Z,11.05
2022-12-31T13:41:41.623Z,1.70
2022-12-31T13:44:26.265Z,2.30
2022-12-31T13:47:02.020Z,3.38
2022-12-31T13:49:44.664Z,2.22
2022-12-31T13:52:32.719Z,1.27
2022-12-31T13:55:23.231Z,3.50
2022-12-31T13:57:55.281Z,1.40
2022-12-31T14:00:26.609Z,1.20
2022-12-31T14:02:59.459Z,1.08
2022-12-31T14:05:34.845Z,1.48
2022-12-31T14:08:05.686Z,2.42
2022-12-31T14:10:44.437Z,1.83
2022-12-31T14:13:35.029Z,1.80
2022-12-31T14:16:11.534Z,1.80
2022-12-31T14:18:49.272Z,2.13
2022-12-31T14:21:25.734Z,2.75
2022-12-31T14:24:04.115Z,1.83
2022-12-31T14:26:53.598Z,1.55
2022-12-31T14:29:29.010Z,2.10
2022-12-31T14:32:24.456Z,1.63
2022-12-31T14:34:53.660Z,2.22
2022-12-31T14:37:33.116Z,1.67
2022-12-31T14:40:05.131Z,1.60
2022-12-31T14:42:48.871Z,1.67
2022-12-31T14:45:33.596Z,1.40
2022-12-31T14:48:09.496Z,1.98
2022-12-31T14:50:39.272Z,1.63
2022-12-31T14:53:08.511Z,1.70
2022-12-31T14:55:39.098Z,2.00
2022-12-31T14:58:28.088Z,1.83
2022-12-31T15:00:59.367Z,2.22
2022-12-31T15:03:39.980Z,2.05
2022-12-31T15:06:17.685Z,4.75
2022-12-31T15:08:56.035Z,2.60
2022-12-31T15:11:34.413Z,1.95
2022-12-31T15:14:22.482Z,2.28
2022-12-31T15:17:00.588Z,1.67
2022-12-31T15:19:44.742Z,1.70
2022-12-31T15:22:23.368Z,1.75
2022-12-31T15:24:52.646Z,1.70
2022-12-31T15:27:42.339Z,1.52
2022-12-31T15:30:32.136Z,1.60
2022-12-31T15:33:03.843Z,1.60
2022-12-31T15:35:35.060Z,1.42
2022-12-31T15:38:20.554Z,2.35
2022-12-31T15:40:51.109Z,2.03
2022-12-31T15:43:29.768Z,1.67
2022-12-31T15:45:59.334Z,1.85
2022-12-31T15:48:35.149Z,2.10
2022-12-31T15:51:04.454Z,3.08
2022-12-31T15:53:45.279Z,2.72
2022-12-31T15:56:19.700Z,1.60
2022-12-31T15:58:50.028Z,2.20
2022-12-31T16:01:26.840Z,1.70
2022-12-31T16:04:14.822Z,1.60
2022-12-31T16:06:50.453Z,2.35
2022-12-31T16:09:27.204Z,1.60
2022-12-31T16:11:57.520Z,1.90
2022-12-31T16:14:28.355Z,2.30
2022-12-31T16:17:01.685Z,1.88
2022-12-31T16:19:58.442Z,1.58
2022-12-31T16:22:29.426Z,1.48
2022-12-31T16:27:49.094Z,1.90
2022-12-31T16:30:22.886Z,1.67
2022-12-31T16:32:53.008Z,1.50
2022-12-31T16:35:40.543Z,2.20
2022-12-31T16:38:20.109Z,1.80
2022-12-31T16:41:09.296Z,1.77
2022-12-31T16:43:39.665Z,2.10
2022-12-31T16:46:14.751Z,1.70
2022-12-31T16:48:47.755Z,2.00
2022-12-31T16:51:20.607Z,3.33
2022-12-31T16:53:50.723Z,2.42
2022-12-31T16:56:32.778Z,2.85
2022-12-31T17:01:34.390Z,2.03
2022-12-31T17:04:06.890Z,2.00
2022-12-31T17:09:05.227Z,1.83
2022-12-31T17:11:39.464Z,2.13
2022-12-31T17:14:14.367Z,2.22
2022-12-31T17:17:04.184Z,1.90
2022-12-31T17:19:47.623Z,2.05
2022-12-31T17:22:32.901Z,1.63
2022-12-31T17:25:25.806Z,1.63
2022-12-31T17:28:00.958Z,1.70
2022-12-31T17:30:30.440Z,1.85
2022-12-31T17:33:03.782Z,1.63
2022-12-31T17:35:37.083Z,2.45
2022-12-31T17:38:24.629Z,1.80
2022-12-31T17:41:04.305Z,1.65
2022-12-31T17:43:35.397Z,1.73
2022-12-31T17:46:05.779Z,2.00
2022-12-31T17:48:34.992Z,1.75
2022-12-31T17:51:04.231Z,1.83
2022-12-31T17:53:33.471Z,1.90
2022-12-31T17:56:07.563Z,4.53
2022-12-31T17:58:39.795Z,2.38
2022-12-31T18:01:10.056Z,1.75
2022-12-31T18:03:39.383Z,1.55
2022-12-31T18:06:13.031Z,1.63
2022-12-31T18:08:45.731Z,2.10
2022-12-31T18:11:19.303Z,2.28
2022-12-31T18:13:48.918Z,1.50
2022-12-31T18:16:18.344Z,1.80
2022-12-31T18:18:47.624Z,1.98
2022-12-31T18:21:20.895Z,2.28
2022-12-31T18:23:51.012Z,2.00
2022-12-31T18:26:21.521Z,3.25
2022-12-31T18:28:51.190Z,1.85
2022-12-31T18:31:20.450Z,1.70
2022-12-31T18:33:50.040Z,2.05
2022-12-31T18:36:20.394Z,1.65
2022-12-31T18:38:49.601Z,2.15
2022-12-31T18:41:23.396Z,1.77
2022-12-31T18:43:52.836Z,2.83
2022-12-31T18:46:24.048Z,2.53
2022-12-31T18:48:53.447Z,1.95
2022-12-31T18:51:30.991Z,2.25
2022-12-31T18:54:01.134Z,1.50
2022-12-31T18:56:31.280Z,1.50
2022-12-31T18:59:02.555Z,1.77
2022-12-31T19:01:34.065Z,1.98
2022-12-31T19:04:05.376Z,2.92
2022-12-31T19:06:34.598Z,1.95
2022-12-31T19:09:06.370Z,2.15
2022-12-31T19:11:48.395Z,2.00
2022-12-31T19:14:19.150Z,2.38
2022-12-31T19:16:48.481Z,2.00
2022-12-31T19:19:17.958Z,2.00
2022-12-31T19:21:47.517Z,2.45
2022-12-31T19:24:18.817Z,2.00
2022-12-31T19:26:48.051Z,1.80
2022-12-31T19:29:21.572Z,2.03
2022-12-31T19:31:51.026Z,2.05
2022-12-31T19:34:20.575Z,2.00
2022-12-31T19:36:49.854Z,1.88
2022-12-31T19:39:20.417Z,2.60
2022-12-31T19:41:58.891Z,2.03
2022-12-31T19:44:28.862Z,1.83
2022-12-31T19:46:58.115Z,1.98
2022-12-31T19:49:27.333Z,1.90
2022-12-31T19:51:56.608Z,2.10
2022-12-31T19:54:25.929Z,1.80
2022-12-31T19:56:55.229Z,2.05
2022-12-31T19:59:24.482Z,2.60
2022-12-31T20:01:53.800Z,2.47
2022-12-31T20:04:23.177Z,2.30
2022-12-31T20:06:52.413Z,2.17
2022-12-31T20:09:21.675Z,2.38
2022-12-31T20:11:50.894Z,2.50
2022-12-31T20:14:20.221Z,2.15
2022-12-31T20:16:49.548Z,2.63
2022-12-31T20:19:18.823Z,2.20
2022-12-31T20:21:48.085Z,4.00
2022-12-31T20:24:17.326Z,2.05
2022-12-31T20:26:46.545Z,2.10
2022-12-31T20:29:15.749Z,2.17
2022-12-31T20:31:44.982Z,2.13
2022-12-31T20:34:14.430Z,2.40
2022-12-31T20:36:43.648Z,2.35
2022-12-31T20:39:12.874Z,2.55
2022-12-31T20:41:42.160Z,2.35
2022-12-31T20:44:11.721Z,2.50
2022-12-31T20:46:41.061Z,2.00
2022-12-31T20:49:10.372Z,2.05
2022-12-31T20:51:39.744Z,1.80
2022-12-31T20:54:10.160Z,2.42
2022-12-31T20:56:40.142Z,2.40
2022-12-31T20:59:09.879Z,2.65
2022-12-31T21:02:11.597Z,2.00
2022-12-31T21:04:29.104Z,3.08
2022-12-31T21:06:58.444Z,2.00
2022-12-31T21:09:27.645Z,3.70
2022-12-31T21:12:09.344Z,2.92
2022-12-31T21:14:44.379Z,2.28
2022-12-31T21:17:14.042Z,2.33
2022-12-31T21:19:43.334Z,3.58
2022-12-31T21:22:12.617Z,2.58
2022-12-31T21:24:42.008Z,3.47
2022-12-31T21:27:11.226Z,2.08
2022-12-31T21:30:01.970Z,2.10
2022-12-31T21:32:29.838Z,2.50
2022-12-31T21:35:31.529Z,2.15
2022-12-31T21:37:58.727Z,2.20
2022-12-31T21:40:30.002Z,3.03
2022-12-31T21:42:59.527Z,3.47
2022-12-31T21:45:28.826Z,3.22
2022-12-31T21:48:13.550Z,2.00
2022-12-31T21:50:42.842Z,3.08
2022-12-31T21:53:12.041Z,2.20
2022-12-31T21:55:53.911Z,2.38
2022-12-31T21:58:26.496Z,2.17
2022-12-31T22:01:09.169Z,3.00
2022-12-31T22:03:38.765Z,4.20
2022-12-31T22:06:12.276Z,4.03
2022-12-31T22:08:42.633Z,2.20
2022-12-31T22:11:12.488Z,2.22
2022-12-31T22:13:41.973Z,3.00
2022-12-31T22:16:12.745Z,2.05
2022-12-31T22:18:44.093Z,2.58
2022-12-31T22:21:18.748Z,2.10
2022-12-31T22:23:48.871Z,2.67
2022-12-31T22:26:18.966Z,2.70
2022-12-31T22:28:48.767Z,12.45
2022-12-31T22:31:19.534Z,2.67
2022-12-31T22:33:49.273Z,1.85
2022-12-31T22:36:22.781Z,2.10
2022-12-31T22:38:52.586Z,1.95
2022-12-31T22:41:22.940Z,2.05
2022-12-31T22:44:00.259Z,2.80
2022-12-31T22:46:32.482Z,2.50
2022-12-31T22:49:02.754Z,2.28
2022-12-31T22:51:57.298Z,2.10
2022-12-31T22:54:22.118Z,2.25
2022-12-31T22:56:51.474Z,1.75
2022-12-31T22:59:20.825Z,2.22
2022-12-31T23:01:50.118Z,4.25
2022-12-31T23:04:19.502Z,10.48
2022-12-31T23:06:48.788Z,16.23
2022-12-31T23:09:31.525Z,3.38
2022-12-31T23:12:00.857Z,5.57
2022-12-31T23:14:42.685Z,6.82
2022-12-31T23:17:32.037Z,6.07
2022-12-31T23:20:14.684Z,4.45
2022-12-31T23:22:56.334Z,7.85
2022-12-31T23:25:25.626Z,5.63
2022-12-31T23:27:54.862Z,4.82
2022-12-31T23:30:24.111Z,3.65
2022-12-31T23:32:53.594Z,4.63
2022-12-31T23:35:22.863Z,4.28
2022-12-31T23:37:52.199Z,4.15
2022-12-31T23:40:22.126Z,5.35
2022-12-31T23:42:52.367Z,6.65
2022-12-31T23:45:21.574Z,6.82
2022-12-31T23:47:50.826Z,6.03
2022-12-31T23:50:20.074Z,6.78
2022-12-31T23:52:49.333Z,6.93
2022-12-31T23:55:18.649Z,7.40
2022-12-31T23:57:47.894Z,7.35
